createdAt,value
2023-05-23T00:01:02.091Z,18.97
2023-05-23T00:04:04.982Z,19.03
2023-05-23T00:07:07.737Z,19.04
2023-05-23T00:10:11.277Z,18.96
2023-05-23T00:13:14.689Z,18.98
2023-05-23T00:16:18.867Z,18.98
2023-05-23T00:19:21.989Z,19.03
2023-05-23T00:22:24.734Z,19.02
2023-05-23T00:25:34.375Z,18.94
2023-05-23T00:28:39.332Z,18.87
2023-05-23T00:31:46.337Z,18.88
2023-05-23T00:34:49.203Z,18.87
2023-05-23T00:37:52.024Z,18.85
2023-05-23T00:40:54.876Z,18.85
2023-05-23T00:43:59.862Z,18.87
2023-05-23T00:47:04.488Z,18.88
2023-05-23T00:50:11.815Z,18.90
2023-05-23T00:53:15.080Z,18.91
2023-05-23T00:56:18.094Z,18.94
2023-05-23T00:59:21.832Z,18.92
2023-05-23T01:02:26.147Z,18.92
2023-05-23T01:05:28.989Z,18.92
2023-05-23T01:08:31.850Z,18.93
2023-05-23T01:11:40.877Z,18.94
2023-05-23T01:14:48.486Z,18.92
2023-05-23T01:17:58.519Z,18.89
2023-05-23T01:21:07.739Z,18.87
2023-05-23T01:24:36.282Z,18.83
2023-05-23T01:27:48.224Z,18.82
2023-05-23T01:30:53.327Z,18.80
2023-05-23T01:33:57.252Z,18.76
2023-05-23T01:36:59.939Z,18.74
2023-05-23T01:40:02.874Z,18.69
2023-05-23T01:43:07.538Z,18.69
2023-05-23T01:46:11.512Z,18.72
2023-05-23T01:49:16.624Z,18.70
2023-05-23T01:52:20.776Z,18.70
2023-05-23T01:55:24.428Z,18.70
2023-05-23T01:58:28.607Z,18.73
2023-05-23T02:01:31.471Z,18.71
2023-05-23T02:04:34.338Z,18.73
2023-05-23T02:07:37.167Z,18.75
2023-05-23T02:10:39.919Z,18.73
2023-05-23T02:13:44.043Z,18.69
2023-05-23T02:16:46.807Z,18.65
2023-05-23T02:19:49.874Z,18.64
2023-05-23T02:22:52.628Z,18.59
2023-05-23T02:25:55.490Z,18.55
2023-05-23T02:28:59.611Z,18.50
2023-05-23T02:32:02.444Z,18.47
2023-05-23T02:35:06.213Z,18.52
2023-05-23T02:38:09.018Z,18.47
2023-05-23T02:41:11.844Z,18.47
2023-05-23T02:44:16.168Z,18.49
2023-05-23T02:47:18.862Z,18.51
2023-05-23T02:50:21.669Z,18.55
2023-05-23T02:53:24.594Z,18.54
2023-05-23T02:56:27.863Z,18.63
2023-05-23T02:59:31.917Z,18.55
2023-05-23T03:02:34.707Z,18.48
2023-05-23T03:05:37.564Z,18.47
2023-05-23T03:08:40.337Z,18.52
2023-05-23T03:11:43.106Z,18.53
2023-05-23T03:14:47.268Z,18.49
2023-05-23T03:17:50.048Z,18.53
2023-05-23T03:20:53.357Z,18.45
2023-05-23T03:23:56.166Z,18.50
2023-05-23T03:26:58.811Z,18.47
2023-05-23T03:30:03.700Z,18.46
2023-05-23T03:33:06.886Z,18.52
2023-05-23T03:36:09.906Z,18.50
2023-05-23T03:39:12.865Z,18.54
2023-05-23T03:42:15.850Z,18.48
2023-05-23T03:45:19.956Z,18.48
2023-05-23T03:48:22.701Z,18.50
2023-05-23T03:51:25.475Z,18.51
2023-05-23T03:54:28.193Z,18.50
2023-05-23T03:57:30.955Z,18.45
2023-05-23T04:00:35.333Z,18.41
2023-05-23T04:03:38.157Z,18.34
2023-05-23T04:06:41.733Z,18.30
2023-05-23T04:09:44.440Z,18.30
2023-05-23T04:12:48.155Z,18.36
2023-05-23T04:15:53.177Z,18.34
2023-05-23T04:18:56.222Z,18.36
2023-05-23T04:21:58.946Z,18.33
2023-05-23T04:25:01.959Z,18.35
2023-05-23T04:28:05.374Z,18.40
2023-05-23T04:31:10.414Z,18.38
2023-05-23T04:34:13.203Z,18.37
2023-05-23T04:37:15.920Z,18.35
2023-05-23T04:40:18.593Z,18.33
2023-05-23T04:43:21.912Z,18.40
2023-05-23T04:46:26.844Z,18.36
2023-05-23T04:49:29.813Z,18.29
2023-05-23T04:52:34.830Z,18.31
2023-05-23T04:55:37.895Z,18.36
2023-05-23T04:58:42.240Z,18.33
2023-05-23T05:01:46.435Z,18.34
2023-05-23T05:04:49.548Z,18.36
2023-05-23T05:07:52.582Z,18.38
2023-05-23T05:10:55.761Z,18.40
2023-05-23T05:13:58.604Z,18.42
2023-05-23T05:17:04.060Z,18.43
2023-05-23T05:20:08.834Z,18.44
2023-05-23T05:23:11.867Z,18.43
2023-05-23T05:26:14.731Z,18.44
2023-05-23T05:29:17.812Z,18.47
2023-05-23T05:32:22.458Z,18.50
2023-05-23T05:35:25.245Z,18.46
2023-05-23T05:38:28.031Z,18.51
2023-05-23T05:41:30.805Z,18.53
2023-05-23T05:44:35.873Z,18.54
2023-05-23T05:47:40.308Z,18.56
2023-05-23T05:50:45.253Z,18.56
2023-05-23T05:53:49.593Z,18.59
2023-05-23T05:56:52.573Z,18.66
2023-05-23T05:59:55.535Z,18.73
2023-05-23T06:02:59.712Z,18.75
2023-05-23T06:06:02.638Z,18.80
2023-05-23T06:09:05.448Z,18.81
2023-05-23T06:12:08.643Z,18.75
2023-05-23T06:15:13.399Z,18.82
2023-05-23T06:18:17.614Z,18.85
2023-05-23T06:21:20.517Z,18.79
2023-05-23T06:24:23.266Z,18.74
2023-05-23T06:27:25.997Z,18.74
2023-05-23T06:30:29.411Z,18.73
2023-05-23T06:33:33.883Z,18.67
2023-05-23T06:36:36.603Z,18.74
2023-05-23T06:39:39.337Z,18.72
2023-05-23T06:42:42.171Z,18.64
2023-05-23T06:45:47.956Z,18.57
2023-05-23T06:49:02.727Z,18.49
2023-05-23T06:52:15.190Z,18.50
2023-05-23T06:55:19.536Z,18.42
2023-05-23T06:58:25.041Z,18.42
2023-05-23T07:01:28.068Z,18.48
2023-05-23T07:04:32.200Z,18.45
2023-05-23T07:07:34.997Z,18.42
2023-05-23T07:10:39.272Z,18.42
2023-05-23T07:13:42.164Z,18.52
2023-05-23T07:16:45.075Z,18.50
2023-05-23T07:19:49.198Z,18.46
2023-05-23T07:22:52.844Z,18.49
2023-05-23T07:26:02.388Z,18.45
2023-05-23T07:29:06.057Z,18.40
2023-05-23T07:32:08.879Z,18.41
2023-05-23T07:35:12.949Z,18.30
2023-05-23T07:38:16.053Z,18.27
2023-05-23T07:41:18.938Z,18.25
2023-05-23T07:44:24.672Z,18.24
2023-05-23T07:47:28.277Z,18.23
2023-05-23T07:50:32.618Z,18.34
2023-05-23T07:53:39.814Z,18.49
2023-05-23T07:56:43.893Z,18.55
2023-05-23T07:59:46.663Z,18.56
2023-05-23T08:02:50.118Z,18.55
2023-05-23T08:05:54.221Z,18.54
2023-05-23T08:08:57.021Z,18.53
2023-05-23T08:12:05.797Z,18.43
2023-05-23T08:15:09.814Z,18.38
2023-05-23T08:18:12.678Z,18.36
2023-05-23T08:21:16.897Z,18.28
2023-05-23T08:24:20.208Z,18.26
2023-05-23T08:27:23.057Z,18.28
2023-05-23T08:30:26.390Z,18.35
2023-05-23T08:33:29.176Z,18.32
2023-05-23T08:36:34.237Z,18.32
2023-05-23T08:39:37.075Z,18.28
2023-05-23T08:42:39.954Z,18.27
2023-05-23T08:45:43.368Z,18.28
2023-05-23T08:48:54.884Z,18.28
2023-05-23T08:52:03.734Z,18.30
2023-05-23T08:55:07.992Z,18.26
2023-05-23T08:58:10.843Z,18.27
2023-05-23T09:01:14.552Z,18.33
2023-05-23T09:04:17.615Z,18.37
2023-05-23T09:07:21.835Z,18.24
2023-05-23T09:10:24.951Z,18.19
2023-05-23T09:13:28.550Z,18.13
2023-05-23T09:16:35.217Z,18.11
2023-05-23T09:19:42.187Z,18.09
2023-05-23T09:22:49.760Z,18.12
2023-05-23T09:25:52.498Z,18.16
2023-05-23T09:28:59.405Z,18.25
2023-05-23T09:32:12.216Z,18.40
2023-05-23T09:35:14.976Z,18.46
2023-05-23T09:38:20.741Z,18.62
2023-05-23T09:41:25.131Z,18.59
2023-05-23T09:44:28.127Z,18.68
2023-05-23T09:47:30.985Z,18.79
2023-05-23T09:50:34.843Z,18.88
2023-05-23T09:53:39.090Z,18.92
2023-05-23T09:56:44.449Z,18.91
2023-05-23T09:59:54.932Z,18.98
2023-05-23T10:03:12.668Z,19.09
2023-05-23T10:06:23.822Z,19.16
2023-05-23T10:09:33.359Z,19.20
2023-05-23T10:12:48.234Z,19.19
2023-05-23T10:15:51.110Z,19.27
2023-05-23T10:18:58.746Z,19.37
2023-05-23T10:22:04.784Z,19.45
2023-05-23T10:25:10.392Z,19.52
2023-05-23T10:28:14.715Z,19.51
2023-05-23T10:31:18.509Z,19.60
2023-05-23T10:34:27.193Z,19.61
2023-05-23T10:37:37.992Z,19.54
2023-05-23T10:40:54.603Z,19.54
2023-05-23T10:44:06.156Z,19.62
2023-05-23T10:47:09.044Z,19.67
2023-05-23T10:50:14.986Z,19.80
2023-05-23T10:53:17.823Z,19.96
2023-05-23T10:56:24.182Z,20.08
2023-05-23T10:59:29.355Z,20.24
2023-05-23T11:02:32.293Z,20.23
2023-05-23T11:05:38.570Z,20.22
2023-05-23T11:08:48.850Z,20.26
2023-05-23T11:12:05.222Z,20.35
2023-05-23T11:15:21.882Z,20.37
2023-05-23T11:18:27.605Z,20.40
2023-05-23T11:21:31.948Z,20.44
2023-05-23T11:24:51.000Z,20.41
2023-05-23T11:27:55.683Z,20.24
2023-05-23T11:30:58.605Z,20.24
2023-05-23T11:34:02.845Z,20.11
2023-05-23T11:37:06.077Z,20.09
2023-05-23T11:40:29.685Z,20.08
2023-05-23T11:43:33.877Z,20.12
2023-05-23T11:46:36.967Z,20.21
2023-05-23T11:49:41.320Z,20.27
2023-05-23T11:52:44.624Z,20.38
2023-05-23T11:55:53.056Z,20.51
2023-05-23T11:58:58.705Z,20.57
2023-05-23T12:02:03.607Z,20.47
2023-05-23T12:05:09.714Z,20.31
2023-05-23T12:08:13.728Z,20.22
2023-05-23T12:11:16.892Z,20.53
2023-05-23T12:14:21.096Z,21.04
2023-05-23T12:17:23.831Z,21.42
2023-05-23T12:20:27.362Z,21.51
2023-05-23T12:23:33.114Z,21.34
2023-05-23T12:26:47.710Z,21.17
2023-05-23T12:30:06.648Z,21.09
2023-05-23T12:33:10.028Z,21.38
2023-05-23T12:36:13.380Z,21.53
2023-05-23T12:39:16.887Z,21.50
2023-05-23T12:42:19.698Z,21.65
2023-05-23T12:45:25.722Z,21.91
2023-05-23T12:48:28.472Z,22.23
2023-05-23T12:51:31.942Z,22.38
2023-05-23T12:54:34.697Z,22.58
2023-05-23T12:57:37.922Z,22.66
2023-05-23T13:00:42.201Z,22.58
2023-05-23T13:03:45.098Z,22.49
2023-05-23T13:06:47.941Z,22.30
2023-05-23T13:09:50.843Z,22.03
2023-05-23T13:12:53.966Z,21.82
2023-05-23T13:15:58.410Z,21.67
2023-05-23T13:19:01.268Z,21.49
2023-05-23T13:22:04.597Z,21.29
2023-05-23T13:25:08.973Z,21.16
2023-05-23T13:28:11.740Z,21.09
2023-05-23T13:31:15.979Z,21.07
2023-05-23T13:34:18.698Z,21.07
2023-05-23T13:37:21.435Z,21.14
2023-05-23T13:40:24.394Z,21.20
2023-05-23T13:43:27.365Z,21.32
2023-05-23T13:46:31.491Z,21.27
2023-05-23T13:49:34.223Z,21.25
2023-05-23T13:52:37.143Z,21.12
2023-05-23T13:55:39.891Z,21.01
2023-05-23T13:58:42.897Z,20.95
2023-05-23T14:01:47.163Z,20.88
2023-05-23T14:04:50.109Z,20.88
2023-05-23T14:07:53.366Z,20.89
2023-05-23T14:10:56.092Z,21.00
2023-05-23T14:13:58.799Z,21.28
2023-05-23T14:17:03.338Z,21.53
2023-05-23T14:20:07.877Z,21.68
2023-05-23T14:23:10.843Z,21.83
2023-05-23T14:26:13.759Z,22.11
2023-05-23T14:29:16.752Z,22.32
2023-05-23T14:32:21.039Z,22.36
2023-05-23T14:35:25.609Z,22.19
2023-05-23T14:38:28.530Z,21.90
2023-05-23T14:41:31.845Z,21.66
2023-05-23T14:44:34.765Z,21.46
2023-05-23T14:47:38.911Z,21.23
2023-05-23T14:50:42.601Z,21.21
2023-05-23T14:53:45.508Z,21.22
2023-05-23T14:56:49.992Z,21.47
2023-05-23T14:59:54.764Z,21.74
2023-05-23T15:02:58.903Z,22.00
2023-05-23T15:06:01.715Z,21.98
2023-05-23T15:09:04.393Z,21.98
2023-05-23T15:12:09.771Z,21.94
2023-05-23T15:15:12.988Z,22.09
2023-05-23T15:18:31.543Z,22.25
2023-05-23T15:21:46.324Z,22.48
2023-05-23T15:24:53.285Z,22.70
2023-05-23T15:27:56.329Z,22.86
2023-05-23T15:30:59.926Z,22.95
2023-05-23T15:34:04.186Z,23.06
2023-05-23T15:37:07.044Z,23.11
2023-05-23T15:40:10.724Z,23.06
2023-05-23T15:43:13.531Z,22.94
2023-05-23T15:46:16.286Z,22.82
2023-05-23T15:49:26.562Z,22.75
2023-05-23T15:52:30.026Z,22.78
2023-05-23T15:55:32.880Z,22.69
2023-05-23T15:58:35.745Z,22.59
2023-05-23T16:01:38.565Z,22.32
2023-05-23T16:04:42.774Z,22.00
2023-05-23T16:07:45.706Z,21.71
2023-05-23T16:10:48.475Z,21.49
2023-05-23T16:13:51.283Z,21.38
2023-05-23T16:16:54.117Z,21.45
2023-05-23T16:19:58.288Z,21.51
2023-05-23T16:23:01.127Z,21.58
2023-05-23T16:26:04.018Z,21.67
2023-05-23T16:29:07.629Z,21.61
2023-05-23T16:32:10.528Z,21.45
2023-05-23T16:35:14.715Z,21.26
2023-05-23T16:38:19.690Z,21.08
2023-05-23T16:41:22.466Z,20.99
2023-05-23T16:44:25.415Z,20.80
2023-05-23T16:47:28.235Z,20.64
2023-05-23T16:50:32.392Z,20.45
2023-05-23T16:53:35.173Z,20.30
2023-05-23T16:56:38.918Z,20.12
2023-05-23T16:59:43.208Z,20.02
2023-05-23T17:02:46.046Z,20.02
2023-05-23T17:05:50.312Z,20.01
2023-05-23T17:08:53.293Z,20.04
2023-05-23T17:11:57.090Z,19.98
2023-05-23T17:14:59.846Z,19.97
2023-05-23T17:18:02.631Z,20.01
2023-05-23T17:21:06.891Z,19.98
2023-05-23T17:24:09.646Z,19.93
2023-05-23T17:27:12.495Z,19.89
2023-05-23T17:30:18.621Z,19.82
2023-05-23T17:33:21.901Z,19.78
2023-05-23T17:36:26.169Z,19.75
2023-05-23T17:39:29.002Z,19.57
2023-05-23T17:42:31.827Z,19.47
2023-05-23T17:45:34.717Z,19.39
2023-05-23T17:48:46.997Z,19.37
2023-05-23T17:51:52.134Z,19.33
2023-05-23T17:54:54.877Z,19.25
2023-05-23T17:58:01.265Z,19.22
2023-05-23T18:01:04.268Z,19.22
2023-05-23T18:04:07.210Z,19.09
2023-05-23T18:07:12.876Z,19.01
2023-05-23T18:10:15.996Z,19.04
2023-05-23T18:13:20.723Z,19.04
2023-05-23T18:16:23.455Z,18.98
2023-05-23T18:19:26.194Z,19.01
2023-05-23T18:22:33.463Z,18.93
2023-05-23T18:25:36.420Z,18.91
2023-05-23T18:28:39.310Z,18.87
2023-05-23T18:31:42.138Z,18.84
2023-05-23T18:34:44.888Z,18.87
2023-05-23T18:37:49.633Z,18.83
2023-05-23T18:40:52.449Z,18.72
2023-05-23T18:43:56.606Z,18.64
2023-05-23T18:46:59.342Z,18.57
2023-05-23T18:50:02.236Z,18.57
2023-05-23T18:53:07.340Z,18.56
2023-05-23T18:56:10.488Z,18.51
2023-05-23T18:59:14.400Z,18.43
2023-05-23T19:02:17.352Z,18.43
2023-05-23T19:05:20.608Z,18.41
2023-05-23T19:08:27.273Z,18.35
2023-05-23T19:11:30.040Z,18.32
2023-05-23T19:14:32.779Z,18.32
2023-05-23T19:17:35.832Z,18.27
2023-05-23T19:20:38.623Z,18.22
2023-05-23T19:23:42.739Z,18.19
2023-05-23T19:26:45.434Z,18.22
2023-05-23T19:29:48.189Z,18.18
2023-05-23T19:32:51.071Z,18.25
2023-05-23T19:35:53.985Z,18.21
2023-05-23T19:38:58.086Z,18.14
2023-05-23T19:42:00.848Z,18.08
2023-05-23T19:45:03.732Z,18.06
2023-05-23T19:48:06.866Z,18.05
2023-05-23T19:51:09.798Z,18.03
2023-05-23T19:54:14.778Z,17.99
2023-05-23T19:57:17.486Z,17.93
2023-05-23T20:00:20.671Z,17.88
2023-05-23T20:03:23.925Z,17.87
2023-05-23T20:06:26.880Z,17.82
2023-05-23T20:09:31.200Z,17.71
2023-05-23T20:12:33.930Z,17.67
2023-05-23T20:15:39.788Z,17.68
2023-05-23T20:18:43.526Z,17.64
2023-05-23T20:21:46.325Z,17.57
2023-05-23T20:24:50.596Z,17.54
2023-05-23T20:27:53.376Z,17.48
2023-05-23T20:30:56.610Z,17.45
2023-05-23T20:33:59.446Z,17.46
2023-05-23T20:37:03.518Z,17.46
2023-05-23T20:40:09.751Z,17.50
2023-05-23T20:43:12.671Z,17.45
2023-05-23T20:46:15.583Z,17.44
2023-05-23T20:49:18.751Z,17.41
2023-05-23T20:52:22.867Z,17.38
2023-05-23T20:55:29.187Z,17.35
2023-05-23T20:58:33.718Z,17.34
2023-05-23T21:01:36.925Z,17.23
2023-05-23T21:04:39.759Z,17.18
2023-05-23T21:07:42.629Z,17.20
2023-05-23T21:10:50.733Z,17.14
2023-05-23T21:13:55.134Z,17.10
2023-05-23T21:16:57.931Z,17.09
2023-05-23T21:20:00.867Z,16.98
2023-05-23T21:23:03.647Z,16.93
2023-05-23T21:26:07.918Z,16.89
2023-05-23T21:29:10.706Z,16.87
2023-05-23T21:32:13.518Z,16.85
2023-05-23T21:35:16.362Z,16.80
2023-05-23T21:38:19.238Z,16.69
2023-05-23T21:41:25.906Z,16.68
2023-05-23T21:44:28.677Z,16.67
2023-05-23T21:47:31.479Z,16.66
2023-05-23T21:50:34.449Z,16.70
2023-05-23T21:53:37.194Z,16.73
2023-05-23T21:56:41.533Z,16.70
2023-05-23T21:59:44.317Z,16.70
2023-05-23T22:02:48.311Z,16.72
2023-05-23T22:05:51.249Z,16.66
2023-05-23T22:08:54.308Z,16.63
2023-05-23T22:11:58.806Z,16.65
2023-05-23T22:15:01.548Z,16.59
2023-05-23T22:18:04.919Z,16.52
2023-05-23T22:21:07.708Z,16.40
2023-05-23T22:24:10.518Z,16.34
2023-05-23T22:27:14.605Z,16.27
2023-05-23T22:30:17.696Z,16.17
2023-05-23T22:33:20.429Z,16.12
2023-05-23T22:36:23.454Z,16.08
2023-05-23T22:39:26.937Z,16.04
2023-05-23T22:42:31.010Z,15.98
2023-05-23T22:45:40.426Z,15.94
2023-05-23T22:48:43.300Z,15.88
2023-05-23T22:51:46.085Z,15.85
2023-05-23T22:54:48.843Z,15.81
2023-05-23T22:57:52.961Z,15.77
2023-05-23T23:00:55.753Z,15.70
2023-05-23T23:03:58.531Z,15.59
2023-05-23T23:07:01.704Z,15.50
2023-05-23T23:10:04.590Z,15.42
2023-05-23T23:13:08.730Z,15.32
2023-05-23T23:16:11.986Z,15.34
2023-05-23T23:19:14.791Z,15.27
2023-05-23T23:22:18.558Z,15.26
2023-05-23T23:25:21.934Z,15.22
2023-05-23T23:28:26.128Z,15.20
2023-05-23T23:31:28.908Z,15.13
2023-05-23T23:34:31.572Z,15.12
2023-05-23T23:37:34.339Z,15.10
2023-05-23T23:40:37.199Z,14.98
2023-05-23T23:43:41.364Z,15.01
2023-05-23T23:46:44.170Z,15.05
2023-05-23T23:49:47.120Z,15.08
2023-05-23T23:52:49.960Z,15.08
2023-05-23T23:55:52.756Z,15.07
2023-05-23T23:58:56.825Z,15.08
